Dallas, Texas
Traffic Map
Current Weather Conditions
Dallas, Texas
Broken Clouds
Broken Clouds
77°
Feels Like: 79°
Wind Chill: 77° Ceiling: 6000
Heat Index: 79° Visibility: 10mi
Dew Point: 71° Wind: 14mph
Humidity: 82% Direction: 170° (S)
Pressure: 30.03in Gusts: 0mph
Raw Report DataKDAL 280753Z 17012KT 10SM SCT046 BKN060 25/22 A3003 RMK AO2 SLP160 T02500217
Traffic Incident Summary
Active as of:
Severity:
Category:
InformationThere was an issue retrieving the traffic information for this location. Please try a different location or try again shortly.
Advertisements
Track Severe Weather on mobile